createdAt,value
2017-06-15T00:00:28.626Z,1007.87
2017-06-15T00:01:28.632Z,1007.88
2017-06-15T00:02:28.717Z,1007.89
2017-06-15T00:03:28.630Z,1007.84
2017-06-15T00:04:28.726Z,1007.93
2017-06-15T00:05:28.691Z,1007.87
2017-06-15T00:06:28.691Z,1007.87
2017-06-15T00:07:28.690Z,1007.84
2017-06-15T00:08:28.690Z,1007.90
2017-06-15T00:09:28.688Z,1007.85
2017-06-15T00:10:28.688Z,1007.86
2017-06-15T00:11:28.690Z,1007.83
2017-06-15T00:12:28.690Z,1007.82
2017-06-15T00:13:28.690Z,1007.76
2017-06-15T00:14:28.694Z,1007.80
2017-06-15T00:15:28.708Z,1007.81
2017-06-15T00:16:28.708Z,1007.78
2017-06-15T00:17:28.710Z,1007.84
2017-06-15T00:18:28.707Z,1007.82
2017-06-15T00:19:28.722Z,1007.76
2017-06-15T00:20:28.720Z,1007.73
2017-06-15T00:21:28.714Z,1007.83
2017-06-15T00:22:28.710Z,1007.82
2017-06-15T00:23:28.712Z,1007.83
2017-06-15T00:24:28.713Z,1007.78
2017-06-15T00:25:28.710Z,1007.76
2017-06-15T00:26:28.727Z,1007.76
2017-06-15T00:27:28.720Z,1007.82
2017-06-15T00:28:28.734Z,1007.84
2017-06-15T00:29:28.648Z,1007.89
2017-06-15T00:30:28.645Z,1007.90
2017-06-15T00:31:28.730Z,1007.90
2017-06-15T00:32:28.730Z,1007.86
2017-06-15T00:33:28.729Z,1007.82
2017-06-15T00:34:28.724Z,1007.82
2017-06-15T00:35:28.657Z,1007.91
2017-06-15T00:36:28.653Z,1007.85
2017-06-15T00:37:28.838Z,1007.82
2017-06-15T00:38:28.651Z,1007.91
2017-06-15T00:39:28.711Z,1007.81
2017-06-15T00:40:28.746Z,1007.79
2017-06-15T00:41:28.740Z,1007.82
2017-06-15T00:42:28.655Z,1007.85
2017-06-15T00:43:28.700Z,1007.82
2017-06-15T00:44:28.735Z,1007.87
2017-06-15T00:45:28.723Z,1007.87
2017-06-15T00:46:28.712Z,1007.86
2017-06-15T00:47:28.711Z,1007.84
2017-06-15T00:48:28.712Z,1007.83
2017-06-15T00:49:28.708Z,1007.82
2017-06-15T00:50:28.711Z,1007.82
2017-06-15T00:51:28.711Z,1007.81
2017-06-15T00:52:28.716Z,1007.79
2017-06-15T00:53:28.712Z,1007.79
2017-06-15T00:54:28.717Z,1007.82
2017-06-15T00:55:28.713Z,1007.82
2017-06-15T00:56:28.730Z,1007.80
2017-06-15T00:57:28.757Z,1007.80
2017-06-15T00:58:28.735Z,1007.82
2017-06-15T00:59:28.731Z,1007.80
2017-06-15T01:00:28.660Z,1007.80
2017-06-15T01:01:28.751Z,1007.80
2017-06-15T01:02:28.731Z,1007.84
2017-06-15T01:03:28.760Z,1007.76
2017-06-15T01:04:28.664Z,1007.68
2017-06-15T01:05:28.749Z,1007.71
2017-06-15T01:06:28.671Z,1007.65
2017-06-15T01:07:28.664Z,1007.74
2017-06-15T01:08:28.755Z,1007.70
2017-06-15T01:09:28.761Z,1007.69
2017-06-15T01:10:28.674Z,1007.69
2017-06-15T01:11:28.715Z,1007.67
2017-06-15T01:12:28.743Z,1007.72
2017-06-15T01:13:28.667Z,1007.68
2017-06-15T01:14:28.739Z,1007.71
2017-06-15T01:15:28.744Z,1007.70
2017-06-15T01:16:28.736Z,1007.70
2017-06-15T01:17:28.740Z,1007.63
2017-06-15T01:18:28.738Z,1007.65
2017-06-15T01:19:28.739Z,1007.63
2017-06-15T01:20:28.741Z,1007.60
2017-06-15T01:21:28.745Z,1007.62
2017-06-15T01:22:28.743Z,1007.56
2017-06-15T01:23:28.743Z,1007.61
2017-06-15T01:24:28.746Z,1007.56
2017-06-15T01:25:28.746Z,1007.58
2017-06-15T01:26:28.762Z,1007.63
2017-06-15T01:27:28.726Z,1007.62
2017-06-15T01:28:28.747Z,1007.60
2017-06-15T01:29:28.784Z,1007.53
2017-06-15T01:30:28.745Z,1007.52
2017-06-15T01:31:28.770Z,1007.52
2017-06-15T01:32:28.781Z,1007.52
2017-06-15T01:33:28.774Z,1007.46
2017-06-15T01:34:28.682Z,1007.46
2017-06-15T01:35:28.767Z,1007.43
2017-06-15T01:36:28.681Z,1007.43
2017-06-15T01:37:28.767Z,1007.40
2017-06-15T01:38:28.708Z,1007.46
2017-06-15T01:39:28.765Z,1007.41
2017-06-15T01:40:28.740Z,1007.42
2017-06-15T01:41:28.772Z,1007.44
2017-06-15T01:42:28.780Z,1007.50
2017-06-15T01:43:28.769Z,1007.50
2017-06-15T01:44:28.774Z,1007.52
2017-06-15T01:45:28.762Z,1007.47
2017-06-15T01:46:28.743Z,1007.48
2017-06-15T01:47:28.827Z,1007.48
2017-06-15T01:48:28.765Z,1007.49
2017-06-15T01:49:28.772Z,1007.49
2017-06-15T01:50:28.709Z,1007.50
2017-06-15T01:51:28.753Z,1007.51
2017-06-15T01:52:28.692Z,1007.51
2017-06-15T01:53:28.787Z,1007.54
2017-06-15T01:54:28.772Z,1007.51
2017-06-15T01:55:28.750Z,1007.51
2017-06-15T01:56:28.718Z,1007.50
2017-06-15T01:57:28.687Z,1007.51
2017-06-15T01:58:28.784Z,1007.46
2017-06-15T01:59:28.691Z,1007.43
2017-06-15T02:00:28.720Z,1007.45
2017-06-15T02:01:28.788Z,1007.45
2017-06-15T02:02:28.719Z,1007.46
2017-06-15T02:03:28.719Z,1007.44
2017-06-15T02:04:28.719Z,1007.47
2017-06-15T02:05:28.696Z,1007.48
2017-06-15T02:06:28.701Z,1007.45
2017-06-15T02:07:28.768Z,1007.46
2017-06-15T02:08:28.793Z,1007.41
2017-06-15T02:09:28.772Z,1007.43
2017-06-15T02:10:28.771Z,1007.37
2017-06-15T02:11:28.769Z,1007.35
2017-06-15T02:12:28.772Z,1007.34
2017-06-15T02:13:28.849Z,1007.35
2017-06-15T02:14:28.770Z,1007.34
2017-06-15T02:15:28.770Z,1007.32
2017-06-15T02:16:28.797Z,1007.30
2017-06-15T02:17:28.725Z,1007.36
2017-06-15T02:18:28.706Z,1007.35
2017-06-15T02:19:28.785Z,1007.33
2017-06-15T02:20:28.794Z,1007.26
2017-06-15T02:21:28.787Z,1007.31
2017-06-15T02:22:28.797Z,1007.34
2017-06-15T02:23:28.800Z,1007.31
2017-06-15T02:24:29.000Z,1007.31
2017-06-15T02:25:28.784Z,1007.35
2017-06-15T02:26:28.734Z,1007.32
2017-06-15T02:27:28.694Z,1007.31
2017-06-15T02:28:28.681Z,1007.29
2017-06-15T02:29:28.679Z,1007.28
2017-06-15T02:30:28.771Z,1007.31
2017-06-15T02:31:28.663Z,1007.27
2017-06-15T02:32:28.792Z,1007.31
2017-06-15T02:33:28.773Z,1007.25
2017-06-15T02:34:28.680Z,1007.27
2017-06-15T02:35:28.774Z,1007.34
2017-06-15T02:36:28.805Z,1007.30
2017-06-15T02:37:28.714Z,1007.30
2017-06-15T02:38:28.722Z,1007.27
2017-06-15T02:39:28.810Z,1007.32
2017-06-15T02:40:28.771Z,1007.29
2017-06-15T02:41:28.717Z,1007.34
2017-06-15T02:42:28.724Z,1007.32
2017-06-15T02:43:28.797Z,1007.32
2017-06-15T02:44:28.802Z,1007.35
2017-06-15T02:45:28.794Z,1007.35
2017-06-15T02:46:28.799Z,1007.31
2017-06-15T02:47:28.813Z,1007.32
2017-06-15T02:48:28.803Z,1007.33
2017-06-15T02:49:28.779Z,1007.32
2017-06-15T02:50:28.808Z,1007.37
2017-06-15T02:51:28.773Z,1007.40
2017-06-15T02:52:28.810Z,1007.36
2017-06-15T02:53:28.816Z,1007.36
2017-06-15T02:54:28.797Z,1007.38
2017-06-15T02:55:28.833Z,1007.36
2017-06-15T02:56:28.773Z,1007.38
2017-06-15T02:57:28.727Z,1007.33
2017-06-15T02:58:28.812Z,1007.38
2017-06-15T02:59:28.807Z,1007.41
2017-06-15T03:00:28.783Z,1007.44
2017-06-15T03:01:28.804Z,1007.41
2017-06-15T03:02:28.727Z,1007.38
2017-06-15T03:03:28.784Z,1007.43
2017-06-15T03:04:28.814Z,1007.43
2017-06-15T03:05:28.735Z,1007.35
2017-06-15T03:06:28.815Z,1007.41
2017-06-15T03:07:28.804Z,1007.44
2017-06-15T03:08:28.804Z,1007.46
2017-06-15T03:09:28.802Z,1007.38
2017-06-15T03:10:28.804Z,1007.40
2017-06-15T03:11:28.806Z,1007.39
2017-06-15T03:12:28.806Z,1007.41
2017-06-15T03:13:28.804Z,1007.38
2017-06-15T03:14:28.805Z,1007.36
2017-06-15T03:15:28.805Z,1007.34
2017-06-15T03:16:28.791Z,1007.33
2017-06-15T03:17:28.816Z,1007.38
2017-06-15T03:18:28.794Z,1007.38
2017-06-15T03:19:28.792Z,1007.33
2017-06-15T03:20:28.894Z,1007.29
2017-06-15T03:21:28.793Z,1007.35
2017-06-15T03:22:28.792Z,1007.34
2017-06-15T03:23:28.794Z,1007.36
2017-06-15T03:24:28.797Z,1007.33
2017-06-15T03:25:28.793Z,1007.34
2017-06-15T03:26:28.825Z,1007.33
2017-06-15T03:27:28.824Z,1007.38
2017-06-15T03:28:28.820Z,1007.36
2017-06-15T03:29:28.830Z,1007.36
2017-06-15T03:30:28.746Z,1007.40
2017-06-15T03:31:28.789Z,1007.31
2017-06-15T03:32:28.932Z,1007.31
2017-06-15T03:33:28.812Z,1007.34
2017-06-15T03:34:28.813Z,1007.35
2017-06-15T03:35:28.830Z,1007.29
2017-06-15T03:36:28.829Z,1007.39
2017-06-15T03:37:28.809Z,1007.36
2017-06-15T03:38:28.836Z,1007.31
2017-06-15T03:39:28.826Z,1007.32
2017-06-15T03:40:28.813Z,1007.39
2017-06-15T03:41:28.750Z,1007.36
2017-06-15T03:42:28.834Z,1007.39
2017-06-15T03:43:28.744Z,1007.46
2017-06-15T03:44:28.834Z,1007.37
2017-06-15T03:45:28.745Z,1007.40
2017-06-15T03:46:28.805Z,1007.39
2017-06-15T03:47:28.803Z,1007.43
2017-06-15T03:48:28.803Z,1007.42
2017-06-15T03:49:28.811Z,1007.39
2017-06-15T03:50:28.805Z,1007.33
2017-06-15T03:51:28.805Z,1007.38
2017-06-15T03:52:28.808Z,1007.39
2017-06-15T03:53:28.810Z,1007.38
2017-06-15T03:54:28.908Z,1007.37
2017-06-15T03:55:28.808Z,1007.35
2017-06-15T03:56:28.809Z,1007.38
2017-06-15T03:57:28.810Z,1007.37
2017-06-15T03:58:28.811Z,1007.38
2017-06-15T03:59:28.811Z,1007.33
2017-06-15T04:00:28.812Z,1007.33
2017-06-15T04:01:28.826Z,1007.29
2017-06-15T04:02:28.814Z,1007.28
2017-06-15T04:03:28.841Z,1007.29
2017-06-15T04:04:28.851Z,1007.26
2017-06-15T04:05:28.817Z,1007.32
2017-06-15T04:06:28.789Z,1007.30
2017-06-15T04:07:28.852Z,1007.29
2017-06-15T04:08:28.811Z,1007.31
2017-06-15T04:09:28.848Z,1007.34
2017-06-15T04:10:28.768Z,1007.36
2017-06-15T04:11:28.772Z,1007.36
2017-06-15T04:12:28.830Z,1007.31
2017-06-15T04:13:28.852Z,1007.32
2017-06-15T04:14:28.771Z,1007.35
2017-06-15T04:15:28.767Z,1007.22
2017-06-15T04:16:28.838Z,1007.27
2017-06-15T04:17:28.834Z,1007.28
2017-06-15T04:18:28.832Z,1007.27
2017-06-15T04:19:28.836Z,1007.28
2017-06-15T04:20:28.836Z,1007.29
2017-06-15T04:21:28.840Z,1007.30
2017-06-15T04:22:28.838Z,1007.26
2017-06-15T04:23:28.838Z,1007.23
2017-06-15T04:24:28.838Z,1007.23
2017-06-15T04:25:28.842Z,1007.23
2017-06-15T04:26:28.841Z,1007.22
2017-06-15T04:27:28.841Z,1007.28
2017-06-15T04:28:28.845Z,1007.27
2017-06-15T04:29:28.842Z,1007.22
2017-06-15T04:30:28.842Z,1007.29
2017-06-15T04:31:28.841Z,1007.29
2017-06-15T04:32:28.842Z,1007.25
2017-06-15T04:33:28.840Z,1007.23
2017-06-15T04:34:28.766Z,1007.22
2017-06-15T04:35:28.840Z,1007.16
2017-06-15T04:36:28.843Z,1007.13
2017-06-15T04:37:28.833Z,1007.09
2017-06-15T04:38:28.837Z,1007.10
2017-06-15T04:39:28.834Z,1007.14
2017-06-15T04:40:28.837Z,1007.19
2017-06-15T04:41:28.835Z,1007.16
2017-06-15T04:42:28.839Z,1007.19
2017-06-15T04:43:28.837Z,1007.20
2017-06-15T04:44:28.836Z,1007.17
2017-06-15T04:45:28.838Z,1007.17
2017-06-15T04:46:28.941Z,1007.18
2017-06-15T04:47:28.849Z,1007.15
2017-06-15T04:48:28.855Z,1007.16
2017-06-15T04:49:28.852Z,1007.13
2017-06-15T04:50:28.958Z,1007.16
2017-06-15T04:51:28.961Z,1007.15
2017-06-15T04:52:28.855Z,1007.13
2017-06-15T04:53:28.861Z,1007.20
2017-06-15T04:54:28.799Z,1007.16
2017-06-15T04:55:28.858Z,1007.16
2017-06-15T04:56:28.858Z,1007.18
2017-06-15T04:57:28.856Z,1007.14
2017-06-15T04:58:28.875Z,1007.13
2017-06-15T04:59:28.869Z,1007.12
2017-06-15T05:00:28.788Z,1007.11
2017-06-15T05:01:28.977Z,1007.15
2017-06-15T05:02:28.879Z,1007.17
2017-06-15T05:03:28.795Z,1007.18
2017-06-15T05:04:28.873Z,1007.15
2017-06-15T05:05:28.888Z,1007.19
2017-06-15T05:06:28.879Z,1007.17
2017-06-15T05:07:28.775Z,1007.13
2017-06-15T05:08:28.825Z,1007.19
2017-06-15T05:09:28.788Z,1007.11
2017-06-15T05:10:28.791Z,1007.14
2017-06-15T05:11:28.785Z,1007.14
2017-06-15T05:12:28.787Z,1007.07
2017-06-15T05:13:28.827Z,1007.11
2017-06-15T05:14:28.795Z,1007.08
2017-06-15T05:15:28.839Z,1007.03
2017-06-15T05:16:28.778Z,1007.02
2017-06-15T05:17:28.893Z,1007.04
2017-06-15T05:18:28.827Z,1006.97
2017-06-15T05:19:28.836Z,1006.99
2017-06-15T05:20:28.792Z,1006.99
2017-06-15T05:21:28.783Z,1006.97
2017-06-15T05:22:28.875Z,1006.99
2017-06-15T05:23:28.807Z,1006.99
2017-06-15T05:24:28.791Z,1007.02
2017-06-15T05:25:28.800Z,1007.00
2017-06-15T05:26:28.832Z,1006.99
2017-06-15T05:27:28.813Z,1006.96
2017-06-15T05:28:28.892Z,1006.98
2017-06-15T05:29:28.809Z,1006.99
2017-06-15T05:30:28.869Z,1006.94
2017-06-15T05:31:28.853Z,1006.97
2017-06-15T05:32:28.853Z,1006.93
2017-06-15T05:33:28.887Z,1006.88
2017-06-15T05:34:28.904Z,1006.95
2017-06-15T05:35:28.820Z,1006.89
2017-06-15T05:36:28.896Z,1006.90
2017-06-15T05:37:28.898Z,1006.90
2017-06-15T05:38:28.899Z,1006.90
2017-06-15T05:39:28.893Z,1006.90
2017-06-15T05:40:28.878Z,1006.93
2017-06-15T05:41:28.897Z,1006.88
2017-06-15T05:42:28.808Z,1006.88
2017-06-15T05:43:28.811Z,1006.88
2017-06-15T05:44:28.861Z,1006.87
2017-06-15T05:45:28.898Z,1006.89
2017-06-15T05:46:28.817Z,1006.88
2017-06-15T05:47:28.874Z,1006.92
2017-06-15T05:48:28.873Z,1006.88
2017-06-15T05:49:28.872Z,1006.91
2017-06-15T05:50:28.875Z,1006.93
2017-06-15T05:51:28.872Z,1006.89
2017-06-15T05:52:28.878Z,1006.89
2017-06-15T05:53:28.873Z,1006.84
2017-06-15T05:54:28.880Z,1006.84
2017-06-15T05:55:28.877Z,1006.80
2017-06-15T05:56:28.876Z,1006.82
2017-06-15T05:57:28.821Z,1006.80
2017-06-15T05:58:28.907Z,1006.83
2017-06-15T05:59:28.909Z,1006.81
2017-06-15T06:00:28.913Z,1006.80
2017-06-15T06:01:28.825Z,1006.84
2017-06-15T06:02:28.912Z,1006.80
2017-06-15T06:03:28.903Z,1006.79
2017-06-15T06:04:28.914Z,1006.77
2017-06-15T06:05:28.968Z,1006.77
2017-06-15T06:06:28.839Z,1006.87
2017-06-15T06:07:28.875Z,1006.81
2017-06-15T06:08:28.875Z,1006.80
2017-06-15T06:09:28.890Z,1006.79
2017-06-15T06:10:28.917Z,1006.82
2017-06-15T06:11:28.828Z,1006.83
2017-06-15T06:12:28.894Z,1006.79
2017-06-15T06:13:28.917Z,1006.81
2017-06-15T06:14:28.916Z,1006.79
2017-06-15T06:15:28.941Z,1006.85
2017-06-15T06:16:28.914Z,1006.86
2017-06-15T06:17:28.837Z,1006.87
2017-06-15T06:18:28.914Z,1006.84
2017-06-15T06:19:28.837Z,1006.89
2017-06-15T06:20:28.931Z,1006.88
2017-06-15T06:21:28.918Z,1006.89
2017-06-15T06:22:28.921Z,1006.85
2017-06-15T06:23:28.900Z,1006.84
2017-06-15T06:24:28.842Z,1006.85
2017-06-15T06:25:28.931Z,1006.84
2017-06-15T06:26:28.928Z,1006.86
2017-06-15T06:27:28.925Z,1006.88
2017-06-15T06:28:28.840Z,1006.82
2017-06-15T06:29:28.923Z,1006.84
2017-06-15T06:30:28.931Z,1006.86
2017-06-15T06:31:28.934Z,1006.84
2017-06-15T06:32:28.853Z,1006.83
2017-06-15T06:33:28.923Z,1006.80
2017-06-15T06:34:28.937Z,1006.83
2017-06-15T06:35:28.847Z,1006.84
2017-06-15T06:36:28.842Z,1006.83
2017-06-15T06:37:28.923Z,1006.85
2017-06-15T06:38:28.927Z,1006.86
2017-06-15T06:39:28.930Z,1006.85
2017-06-15T06:40:28.926Z,1006.84
2017-06-15T06:41:28.934Z,1006.89
2017-06-15T06:42:28.929Z,1006.84
2017-06-15T06:43:28.939Z,1006.84
2017-06-15T06:44:28.896Z,1006.81
2017-06-15T06:45:28.934Z,1006.80
2017-06-15T06:46:28.934Z,1006.76
2017-06-15T06:47:28.916Z,1006.84
2017-06-15T06:48:29.015Z,1006.82
2017-06-15T06:49:28.914Z,1006.84
2017-06-15T06:50:28.893Z,1006.83
2017-06-15T06:51:28.917Z,1006.84
2017-06-15T06:52:28.918Z,1006.85
2017-06-15T06:53:29.005Z,1006.82
2017-06-15T06:54:28.917Z,1006.84
2017-06-15T06:55:28.919Z,1006.79
2017-06-15T06:56:28.919Z,1006.79
2017-06-15T06:57:28.840Z,1006.80
2017-06-15T06:58:28.947Z,1006.81
2017-06-15T06:59:28.946Z,1006.78
2017-06-15T07:00:28.833Z,1006.79
2017-06-15T07:01:28.899Z,1006.77
2017-06-15T07:02:28.898Z,1006.75
2017-06-15T07:03:28.903Z,1006.76
2017-06-15T07:04:28.830Z,1006.78
2017-06-15T07:05:28.893Z,1006.75
2017-06-15T07:06:28.838Z,1006.77
2017-06-15T07:07:28.923Z,1006.82
2017-06-15T07:08:28.925Z,1006.73
2017-06-15T07:09:28.923Z,1006.74
2017-06-15T07:10:28.926Z,1006.76
2017-06-15T07:11:28.932Z,1006.75
2017-06-15T07:12:29.010Z,1006.71
2017-06-15T07:13:28.933Z,1006.72
2017-06-15T07:14:28.932Z,1006.67
2017-06-15T07:15:28.957Z,1006.75
2017-06-15T07:16:28.928Z,1006.74
2017-06-15T07:17:28.936Z,1006.74
2017-06-15T07:18:28.933Z,1006.70
2017-06-15T07:19:28.930Z,1006.71
2017-06-15T07:20:28.932Z,1006.68
2017-06-15T07:21:29.036Z,1006.73
2017-06-15T07:22:28.937Z,1006.69
2017-06-15T07:23:28.937Z,1006.66
2017-06-15T07:24:28.934Z,1006.71
2017-06-15T07:25:28.939Z,1006.66
2017-06-15T07:26:28.938Z,1006.71
2017-06-15T07:27:28.959Z,1006.66
2017-06-15T07:28:28.934Z,1006.66
2017-06-15T07:29:28.956Z,1006.66
2017-06-15T07:30:28.949Z,1006.65
2017-06-15T07:31:28.955Z,1006.64
2017-06-15T07:32:28.958Z,1006.63
2017-06-15T07:33:28.973Z,1006.67
2017-06-15T07:34:28.880Z,1006.67
2017-06-15T07:35:28.919Z,1006.66
2017-06-15T07:36:28.960Z,1006.62
2017-06-15T07:37:28.883Z,1006.59
2017-06-15T07:38:28.880Z,1006.62
2017-06-15T07:39:28.960Z,1006.58
2017-06-15T07:40:28.958Z,1006.54
2017-06-15T07:41:28.885Z,1006.60
2017-06-15T07:42:28.956Z,1006.54
2017-06-15T07:43:28.963Z,1006.56
2017-06-15T07:44:28.976Z,1006.56
2017-06-15T07:45:28.973Z,1006.58
2017-06-15T07:46:28.968Z,1006.59
2017-06-15T07:47:28.950Z,1006.58
2017-06-15T07:48:28.950Z,1006.61
2017-06-15T07:49:28.950Z,1006.57
2017-06-15T07:50:28.950Z,1006.59
2017-06-15T07:51:28.955Z,1006.61
2017-06-15T07:52:28.951Z,1006.54
2017-06-15T07:53:29.055Z,1006.57
2017-06-15T07:54:28.951Z,1006.60
2017-06-15T07:55:29.034Z,1006.54
2017-06-15T07:56:28.952Z,1006.57
2017-06-15T07:57:28.955Z,1006.50
2017-06-15T07:58:28.940Z,1006.53
2017-06-15T07:59:28.942Z,1006.48
2017-06-15T08:00:28.943Z,1006.43
2017-06-15T08:01:28.946Z,1006.46
2017-06-15T08:02:28.944Z,1006.48
2017-06-15T08:03:28.945Z,1006.49
2017-06-15T08:04:28.946Z,1006.45
2017-06-15T08:05:28.951Z,1006.41
2017-06-15T08:06:29.046Z,1006.45
2017-06-15T08:07:28.976Z,1006.47
2017-06-15T08:08:29.101Z,1006.44
2017-06-15T08:09:28.981Z,1006.41
2017-06-15T08:10:28.901Z,1006.37
2017-06-15T08:11:28.955Z,1006.41
2017-06-15T08:12:28.897Z,1006.39
2017-06-15T08:13:28.896Z,1006.44
2017-06-15T08:14:28.943Z,1006.47
2017-06-15T08:15:28.983Z,1006.44
2017-06-15T08:16:28.979Z,1006.46
2017-06-15T08:17:28.981Z,1006.44
2017-06-15T08:18:28.985Z,1006.38
2017-06-15T08:19:28.908Z,1006.38
2017-06-15T08:20:28.985Z,1006.32
2017-06-15T08:21:28.907Z,1006.33
2017-06-15T08:22:28.950Z,1006.32
2017-06-15T08:23:28.948Z,1006.29
2017-06-15T08:24:28.907Z,1006.26
2017-06-15T08:25:28.904Z,1006.33
2017-06-15T08:26:28.985Z,1006.35
2017-06-15T08:27:28.983Z,1006.30
2017-06-15T08:28:28.971Z,1006.32
2017-06-15T08:29:28.970Z,1006.32
2017-06-15T08:30:28.973Z,1006.30
2017-06-15T08:31:28.967Z,1006.28
2017-06-15T08:32:28.975Z,1006.27
2017-06-15T08:33:28.973Z,1006.30
2017-06-15T08:34:28.978Z,1006.31
2017-06-15T08:35:28.975Z,1006.31
2017-06-15T08:36:28.977Z,1006.29
2017-06-15T08:37:28.986Z,1006.30
2017-06-15T08:38:28.975Z,1006.29
2017-06-15T08:39:28.915Z,1006.29
2017-06-15T08:40:28.916Z,1006.27
2017-06-15T08:41:28.912Z,1006.28
2017-06-15T08:42:29.002Z,1006.28
2017-06-15T08:43:29.003Z,1006.25
2017-06-15T08:44:28.989Z,1006.26
2017-06-15T08:45:28.994Z,1006.28
2017-06-15T08:46:28.918Z,1006.25
2017-06-15T08:47:29.003Z,1006.28
2017-06-15T08:48:28.906Z,1006.25
2017-06-15T08:49:28.893Z,1006.27
2017-06-15T08:50:28.946Z,1006.22
2017-06-15T08:51:28.990Z,1006.21
2017-06-15T08:52:28.998Z,1006.20
2017-06-15T08:53:28.902Z,1006.18
2017-06-15T08:54:28.885Z,1006.19
2017-06-15T08:55:28.910Z,1006.16
2017-06-15T08:56:28.987Z,1006.16
2017-06-15T08:57:28.917Z,1006.16
2017-06-15T08:58:28.987Z,1006.14
2017-06-15T08:59:28.990Z,1006.09
2017-06-15T09:00:29.004Z,1006.09
2017-06-15T09:01:28.991Z,1006.13
2017-06-15T09:02:28.995Z,1006.12
2017-06-15T09:03:28.987Z,1006.14
2017-06-15T09:04:28.972Z,1006.09
2017-06-15T09:05:28.981Z,1006.08
2017-06-15T09:06:29.006Z,1006.07
2017-06-15T09:07:28.991Z,1006.05
2017-06-15T09:08:28.997Z,1006.04
2017-06-15T09:09:28.994Z,1006.02
2017-06-15T09:10:28.991Z,1006.04
2017-06-15T09:11:28.998Z,1006.02
2017-06-15T09:12:28.993Z,1006.08
2017-06-15T09:13:28.995Z,1006.01
2017-06-15T09:14:28.997Z,1006.02
2017-06-15T09:15:28.999Z,1006.08
2017-06-15T09:16:29.000Z,1006.04
2017-06-15T09:17:28.994Z,1006.09
2017-06-15T09:18:28.999Z,1006.05
2017-06-15T09:19:28.994Z,1006.07
2017-06-15T09:20:28.995Z,1006.08
2017-06-15T09:21:29.000Z,1006.08
2017-06-15T09:22:28.995Z,1006.08
2017-06-15T09:23:28.920Z,1006.07
2017-06-15T09:24:28.920Z,1006.07
2017-06-15T09:25:28.905Z,1006.06
2017-06-15T09:26:28.922Z,1006.02
2017-06-15T09:27:28.921Z,1006.07
2017-06-15T09:28:28.919Z,1006.05
2017-06-15T09:29:28.904Z,1006.10
2017-06-15T09:30:28.923Z,1006.03
2017-06-15T09:31:28.850Z,1006.06
2017-06-15T09:32:28.922Z,1005.97
2017-06-15T09:33:28.980Z,1005.96
2017-06-15T09:34:29.007Z,1005.92
2017-06-15T09:35:28.920Z,1006.01
2017-06-15T09:36:29.008Z,1006.00
2017-06-15T09:37:29.013Z,1006.01
2017-06-15T09:38:29.012Z,1005.99
2017-06-15T09:39:29.037Z,1005.97
2017-06-15T09:40:29.011Z,1006.02
2017-06-15T09:41:29.037Z,1005.97
2017-06-15T09:42:29.013Z,1005.98
2017-06-15T09:43:29.013Z,1005.96
2017-06-15T09:44:29.012Z,1005.96
2017-06-15T09:45:29.015Z,1005.91
2017-06-15T09:46:29.012Z,1005.94
2017-06-15T09:47:29.014Z,1005.96
2017-06-15T09:48:29.014Z,1005.95
2017-06-15T09:49:29.012Z,1005.93
2017-06-15T09:50:29.016Z,1005.91
2017-06-15T09:51:29.014Z,1005.90
2017-06-15T09:52:29.012Z,1005.87
2017-06-15T09:53:29.012Z,1005.87
2017-06-15T09:54:29.019Z,1005.87
2017-06-15T09:55:29.019Z,1005.85
2017-06-15T09:56:29.017Z,1005.85
2017-06-15T09:57:29.025Z,1005.85
2017-06-15T09:58:29.020Z,1005.80
2017-06-15T09:59:29.021Z,1005.80
2017-06-15T10:00:29.021Z,1005.80
2017-06-15T10:01:29.021Z,1005.77
2017-06-15T10:02:29.032Z,1005.80
2017-06-15T10:03:29.021Z,1005.79
2017-06-15T10:04:29.042Z,1005.80
2017-06-15T10:05:29.043Z,1005.79
2017-06-15T10:06:29.043Z,1005.75
2017-06-15T10:07:29.051Z,1005.76
2017-06-15T10:08:28.959Z,1005.74
2017-06-15T10:09:29.097Z,1005.71
2017-06-15T10:10:29.040Z,1005.71
2017-06-15T10:11:29.054Z,1005.72
2017-06-15T10:12:29.053Z,1005.71
2017-06-15T10:13:29.057Z,1005.67
2017-06-15T10:14:29.013Z,1005.66
2017-06-15T10:15:28.959Z,1005.65
2017-06-15T10:16:29.008Z,1005.64
2017-06-15T10:17:29.008Z,1005.63
2017-06-15T10:18:28.960Z,1005.61
2017-06-15T10:19:29.052Z,1005.60
2017-06-15T10:20:29.153Z,1005.56
2017-06-15T10:21:29.056Z,1005.61
2017-06-15T10:22:29.048Z,1005.60
2017-06-15T10:23:29.035Z,1005.60
2017-06-15T10:24:29.034Z,1005.59
2017-06-15T10:25:28.997Z,1005.55
2017-06-15T10:26:29.031Z,1005.58
2017-06-15T10:27:29.055Z,1005.55
2017-06-15T10:28:28.970Z,1005.55
2017-06-15T10:29:29.057Z,1005.53
2017-06-15T10:30:28.977Z,1005.50
2017-06-15T10:31:28.973Z,1005.52
2017-06-15T10:32:28.967Z,1005.49
2017-06-15T10:33:29.016Z,1005.49
2017-06-15T10:34:29.030Z,1005.49
2017-06-15T10:35:29.053Z,1005.48
2017-06-15T10:36:29.026Z,1005.49
2017-06-15T10:37:29.028Z,1005.48
2017-06-15T10:38:29.029Z,1005.44
2017-06-15T10:39:29.035Z,1005.44
2017-06-15T10:40:29.033Z,1005.43
2017-06-15T10:41:29.031Z,1005.46
2017-06-15T10:42:29.133Z,1005.44
2017-06-15T10:43:29.033Z,1005.44
2017-06-15T10:44:29.032Z,1005.44
2017-06-15T10:45:29.036Z,1005.44
2017-06-15T10:46:29.032Z,1005.37
2017-06-15T10:47:29.037Z,1005.35
2017-06-15T10:48:29.035Z,1005.33
2017-06-15T10:49:29.036Z,1005.31
2017-06-15T10:50:29.038Z,1005.30
2017-06-15T10:51:29.034Z,1005.22
2017-06-15T10:52:29.042Z,1005.23
2017-06-15T10:53:29.038Z,1005.21
2017-06-15T10:54:29.068Z,1005.20
2017-06-15T10:55:28.989Z,1005.21
2017-06-15T10:56:29.070Z,1005.20
2017-06-15T10:57:29.065Z,1005.21
2017-06-15T10:58:29.076Z,1005.21
2017-06-15T10:59:29.082Z,1005.20
2017-06-15T11:00:29.041Z,1005.18
2017-06-15T11:01:28.982Z,1005.24
2017-06-15T11:02:28.989Z,1005.18
2017-06-15T11:03:29.054Z,1005.13
2017-06-15T11:04:29.059Z,1005.19
2017-06-15T11:05:29.060Z,1005.16
2017-06-15T11:06:29.060Z,1005.14
2017-06-15T11:07:29.061Z,1005.15
2017-06-15T11:08:29.061Z,1005.19
2017-06-15T11:09:29.061Z,1005.13
2017-06-15T11:10:29.059Z,1005.11
2017-06-15T11:11:29.053Z,1005.10
2017-06-15T11:12:29.061Z,1005.11
2017-06-15T11:13:29.061Z,1005.09
2017-06-15T11:14:29.047Z,1005.10
2017-06-15T11:15:29.046Z,1005.08
2017-06-15T11:16:29.048Z,1005.07
2017-06-15T11:17:29.046Z,1005.05
2017-06-15T11:18:29.050Z,1005.04
2017-06-15T11:19:29.047Z,1005.06
2017-06-15T11:20:29.050Z,1005.02
2017-06-15T11:21:29.050Z,1005.12
2017-06-15T11:22:29.052Z,1005.05
2017-06-15T11:23:29.050Z,1005.07
2017-06-15T11:24:28.988Z,1005.04
2017-06-15T11:25:29.027Z,1005.01
2017-06-15T11:26:29.026Z,1005.02
2017-06-15T11:27:29.026Z,1004.99
2017-06-15T11:28:28.996Z,1004.97
2017-06-15T11:29:28.979Z,1005.00
2017-06-15T11:30:29.033Z,1005.02
2017-06-15T11:31:28.996Z,1004.98
2017-06-15T11:32:29.093Z,1005.01
2017-06-15T11:33:29.049Z,1004.98
2017-06-15T11:34:29.008Z,1004.98
2017-06-15T11:35:29.014Z,1004.97
2017-06-15T11:36:29.005Z,1004.93
2017-06-15T11:37:29.049Z,1004.94
2017-06-15T11:38:29.085Z,1004.89
2017-06-15T11:39:29.093Z,1004.88
2017-06-15T11:40:29.100Z,1004.87
2017-06-15T11:41:29.099Z,1004.85
2017-06-15T11:42:29.095Z,1004.81
2017-06-15T11:43:29.067Z,1004.83
2017-06-15T11:44:29.095Z,1004.79
2017-06-15T11:45:29.053Z,1004.79
2017-06-15T11:46:29.057Z,1004.79
2017-06-15T11:47:29.098Z,1004.74
2017-06-15T11:48:29.095Z,1004.76
2017-06-15T11:49:29.015Z,1004.78
2017-06-15T11:50:29.018Z,1004.75
2017-06-15T11:51:29.015Z,1004.71
2017-06-15T11:52:29.077Z,1004.71
2017-06-15T11:53:29.098Z,1004.73
2017-06-15T11:54:29.000Z,1004.68
2017-06-15T11:55:29.043Z,1004.66
2017-06-15T11:56:29.005Z,1004.70
2017-06-15T11:57:29.045Z,1004.66
2017-06-15T11:58:29.005Z,1004.71
2017-06-15T11:59:29.001Z,1004.68
2017-06-15T12:00:29.011Z,1004.68
2017-06-15T12:01:29.047Z,1004.63
2017-06-15T12:02:29.005Z,1004.60
2017-06-15T12:03:29.047Z,1004.60
2017-06-15T12:04:29.103Z,1004.58
2017-06-15T12:05:29.092Z,1004.61